Time,TemperatureF,DewpointF,PressureIn,WindDirection,WindDirectionDegrees,WindSpeedMPH,WindSpeedGustMPH,Humidity,HourlyPrecipIn,Conditions,Clouds,dailyrainin,SoftwareType,DateUTC
2013-05-21 00:42:00,72.0,65.0,29.90,NNW,337,1.0,1.0,78,0.00,,,0.00,TxWx,2013-05-21 04:42:00,
2013-05-21 00:47:00,72.0,65.0,29.89,NW,315,1.0,1.0,79,0.00,,,0.00,TxWx,2013-05-21 04:47:00,
2013-05-21 00:53:00,72.0,65.0,29.89,NW,315,2.0,2.0,79,0.00,,,0.00,TxWx,2013-05-21 04:53:00,
2013-05-21 00:58:00,71.0,64.0,29.89,NW,315,2.0,2.0,80,0.00,,,0.00,TxWx,2013-05-21 04:58:00,
2013-05-21 01:03:00,71.0,64.0,29.89,North,0,0.0,0.0,80,0.00,,,0.00,TxWx,2013-05-21 05:03:00,
2013-05-21 01:08:00,71.0,64.0,29.89,SE,135,1.0,1.0,80,0.00,,,0.00,TxWx,2013-05-21 05:08:00,
2013-05-21 01:13:00,71.0,65.0,29.89,WSW,247,1.0,1.0,81,0.00,,,0.00,TxWx,2013-05-21 05:13:00,
2013-05-21 01:18:00,71.0,65.0,29.88,WNW,292,1.0,1.0,81,0.00,,,0.00,TxWx,2013-05-21 05:18:00,
2013-05-21 01:23:00,70.0,64.0,29.88,NNE,22,1.0,1.0,82,0.00,,,0.00,TxWx,2013-05-21 05:23:00,
2013-05-21 01:28:00,70.0,64.0,29.88,NNE,22,0.0,0.0,82,0.00,,,0.00,TxWx,2013-05-21 05:28:00,
2013-05-21 01:34:00,70.0,64.0,29.88,SE,135,0.0,1.0,82,0.00,,,0.00,TxWx,2013-05-21 05:34:00,
2013-05-21 01:39:00,69.0,63.0,29.88,East,90,0.0,0.0,83,0.00,,,0.00,TxWx,2013-05-21 05:39:00,
2013-05-21 01:44:00,69.0,64.0,29.88,WNW,292,0.0,1.0,83,0.00,,,0.00,TxWx,2013-05-21 05:44:00,
2013-05-21 01:49:00,69.0,64.0,29.87,NW,315,0.0,0.0,83,0.00,,,0.00,TxWx,2013-05-21 05:49:00,
2013-05-21 01:55:00,69.0,64.0,29.87,SW,225,0.0,0.0,84,0.00,,,0.00,TxWx,2013-05-21 05:55:00,
2013-05-21 02:00:00,68.0,63.0,29.87,NNE,22,0.0,0.0,84,0.00,,,0.00,TxWx,2013-05-21 06:00:00,
2013-05-21 02:05:00,68.0,63.0,29.87,NNW,337,1.0,1.0,84,0.00,,,0.00,TxWx,2013-05-21 06:05:00,
2013-05-21 02:10:00,68.0,63.0,29.87,NNW,337,1.0,1.0,84,0.00,,,0.00,TxWx,2013-05-21 06:10:00,
2013-05-21 02:15:00,68.0,63.0,29.87,North,0,1.0,1.0,84,0.00,,,0.00,TxWx,2013-05-21 06:15:00,
2013-05-21 02:20:00,68.0,63.0,29.87,NNE,22,1.0,1.0,85,0.00,,,0.00,TxWx,2013-05-21 06:20:00,
2013-05-21 02:25:00,67.0,62.0,29.87,West,270,1.0,1.0,85,0.00,,,0.00,TxWx,2013-05-21 06:25:00,
2013-05-21 02:30:00,67.0,62.0,29.86,WNW,292,0.0,1.0,85,0.00,,,0.00,TxWx,2013-05-21 06:30:00,
2013-05-21 02:35:00,67.0,62.0,29.86,NNE,22,1.0,1.0,85,0.00,,,0.00,TxWx,2013-05-21 06:35:00,
2013-05-21 02:41:00,67.0,62.0,29.87,WNW,292,1.0,1.0,85,0.00,,,0.00,TxWx,2013-05-21 06:41:00,
2013-05-21 02:46:00,67.0,62.0,29.86,WNW,292,1.0,1.0,86,0.00,,,0.00,TxWx,2013-05-21 06:46:00,
2013-05-21 02:51:00,67.0,62.0,29.86,NNE,22,1.0,1.0,86,0.00,,,0.00,TxWx,2013-05-21 06:51:00,
2013-05-21 02:57:00,67.0,62.0,29.87,NE,45,0.0,0.0,86,0.00,,,0.00,TxWx,2013-05-21 06:57:00,
2013-05-21 03:02:00,67.0,63.0,29.87,SE,135,1.0,1.0,86,0.00,,,0.00,TxWx,2013-05-21 07:02:00,
2013-05-21 03:07:00,67.0,63.0,29.87,South,180,1.0,2.0,87,0.00,,,0.00,TxWx,2013-05-21 07:07:00,
2013-05-21 03:12:00,67.0,63.0,29.86,South,180,1.0,2.0,87,0.00,,,0.00,TxWx,2013-05-21 07:12:00,
2013-05-21 03:18:00,67.0,63.0,29.86,South,180,1.0,1.0,87,0.00,,,0.00,TxWx,2013-05-21 07:18:00,
2013-05-21 03:23:00,67.0,63.0,29.86,West,270,0.0,0.0,88,0.00,,,0.00,TxWx,2013-05-21 07:23:00,
2013-05-21 03:28:00,67.0,63.0,29.86,WNW,292,0.0,1.0,88,0.00,,,0.00,TxWx,2013-05-21 07:28:00,
2013-05-21 03:33:00,67.0,63.0,29.86,WNW,292,0.0,0.0,88,0.00,,,0.00,TxWx,2013-05-21 07:33:00,
2013-05-21 03:38:00,67.0,63.0,29.87,ENE,67,1.0,1.0,88,0.00,,,0.00,TxWx,2013-05-21 07:38:00,
2013-05-21 03:43:00,67.0,63.0,29.87,ESE,112,1.0,1.0,88,0.00,,,0.00,TxWx,2013-05-21 07:43:00,
2013-05-21 03:48:00,66.0,62.0,29.87,SW,225,1.0,1.0,88,0.00,,,0.00,TxWx,2013-05-21 07:48:00,
2013-05-21 03:53:00,66.0,62.0,29.87,SW,225,0.0,1.0,89,0.00,,,0.00,TxWx,2013-05-21 07:53:00,
2013-05-21 03:59:00,66.0,62.0,29.87,East,90,0.0,0.0,89,0.00,,,0.00,TxWx,2013-05-21 07:59:00,
2013-05-21 04:04:00,66.0,62.0,29.87,NW,315,0.0,1.0,89,0.00,,,0.00,TxWx,2013-05-21 08:04:00,
2013-05-21 04:09:00,66.0,62.0,29.87,WNW,292,1.0,1.0,89,0.00,,,0.00,TxWx,2013-05-21 08:09:00,
2013-05-21 04:14:00,66.0,63.0,29.86,West,270,2.0,2.0,89,0.00,,,0.00,TxWx,2013-05-21 08:14:00,
2013-05-21 04:19:00,67.0,64.0,29.86,East,90,0.0,1.0,89,0.00,,,0.00,TxWx,2013-05-21 08:19:00,
2013-05-21 04:24:00,66.0,62.0,29.87,ENE,67,2.0,2.0,89,0.00,,,0.00,TxWx,2013-05-21 08:24:00,
2013-05-21 04:29:00,65.0,62.0,29.88,NW,315,1.0,1.0,89,0.00,,,0.00,TxWx,2013-05-21 08:29:00,
2013-05-21 04:34:00,66.0,63.0,29.87,WNW,292,1.0,2.0,90,0.00,,,0.00,TxWx,2013-05-21 08:34:00,
2013-05-21 04:40:00,66.0,63.0,29.87,WSW,247,0.0,1.0,90,0.00,,,0.00,TxWx,2013-05-21 08:40:00,
2013-05-21 04:45:00,65.0,62.0,29.86,SSE,157,1.0,2.0,89,0.00,,,0.00,TxWx,2013-05-21 08:45:00,
2013-05-21 04:50:00,65.0,62.0,29.86,South,180,1.0,1.0,90,0.00,,,0.00,TxWx,2013-05-21 08:50:00,
2013-05-21 04:55:00,65.0,62.0,29.86,NNW,337,2.0,2.0,90,0.00,,,0.00,TxWx,2013-05-21 08:55:00,
2013-05-21 05:00:00,65.0,62.0,29.87,NE,45,2.0,2.0,90,0.00,,,0.00,TxWx,2013-05-21 09:00:00,
2013-05-21 05:05:00,64.0,61.0,29.87,SSE,157,1.0,1.0,90,0.00,,,0.00,TxWx,2013-05-21 09:05:00,
2013-05-21 05:11:00,65.0,62.0,29.86,West,270,1.0,2.0,90,0.00,,,0.00,TxWx,2013-05-21 09:11:00,
2013-05-21 05:16:00,65.0,62.0,29.85,NW,315,1.0,2.0,91,0.00,,,0.00,TxWx,2013-05-21 09:16:00,
2013-05-21 05:21:00,65.0,62.0,29.86,ENE,67,1.0,1.0,90,0.00,,,0.00,TxWx,2013-05-21 09:21:00,
2013-05-21 05:26:00,65.0,62.0,29.86,SSE,157,1.0,1.0,90,0.00,,,0.00,TxWx,2013-05-21 09:26:00,
2013-05-21 05:31:00,65.0,62.0,29.85,North,0,2.0,2.0,91,0.00,,,0.00,TxWx,2013-05-21 09:31:00,
2013-05-21 05:36:00,65.0,62.0,29.86,NNE,22,1.0,1.0,91,0.00,,,0.00,TxWx,2013-05-21 09:36:00,
2013-05-21 05:42:00,65.0,62.0,29.85,WNW,292,2.0,3.0,91,0.00,,,0.00,TxWx,2013-05-21 09:42:00,
2013-05-21 05:47:00,65.0,62.0,29.86,SE,135,3.0,3.0,90,0.00,,,0.00,TxWx,2013-05-21 09:47:00,
2013-05-21 05:52:00,65.0,62.0,29.86,ESE,112,1.0,1.0,91,0.00,,,0.00,TxWx,2013-05-21 09:52:00,
2013-05-21 05:58:00,65.0,62.0,29.86,WNW,292,0.0,0.0,91,0.00,,,0.00,TxWx,2013-05-21 09:58:00,
2013-05-21 06:03:00,66.0,63.0,29.87,NNE,22,2.0,2.0,92,0.00,,,0.00,TxWx,2013-05-21 10:03:00,
2013-05-21 06:08:00,66.0,63.0,29.87,South,180,1.0,2.0,92,0.00,,,0.00,TxWx,2013-05-21 10:08:00,
2013-05-21 06:13:00,66.0,63.0,29.88,ESE,112,1.0,2.0,92,0.00,,,0.00,TxWx,2013-05-21 10:13:00,
2013-05-21 06:18:00,66.0,63.0,29.88,NW,315,1.0,2.0,92,0.00,,,0.00,TxWx,2013-05-21 10:18:00,
2013-05-21 06:24:00,66.0,63.0,29.87,NNW,337,1.0,1.0,92,0.00,,,0.00,TxWx,2013-05-21 10:24:00,
2013-05-21 06:29:00,67.0,64.0,29.87,NW,315,1.0,1.0,92,0.00,,,0.00,TxWx,2013-05-21 10:29:00,
2013-05-21 06:34:00,67.0,64.0,29.88,NNE,22,1.0,1.0,92,0.00,,,0.00,TxWx,2013-05-21 10:34:00,
2013-05-21 06:39:00,67.0,64.0,29.87,West,270,1.0,1.0,92,0.00,,,0.00,TxWx,2013-05-21 10:39:00,
2013-05-21 06:45:00,67.0,65.0,29.87,NW,315,1.0,1.0,92,0.00,,,0.00,TxWx,2013-05-21 10:45:00,
2013-05-21 06:50:00,68.0,66.0,29.87,NNW,337,1.0,1.0,92,0.00,,,0.00,TxWx,2013-05-21 10:50:00,
2013-05-21 06:55:00,68.0,66.0,29.88,ESE,112,2.0,2.0,92,0.00,,,0.00,TxWx,2013-05-21 10:55:00,
2013-05-21 07:00:00,68.0,66.0,29.88,East,90,1.0,1.0,93,0.00,,,0.00,TxWx,2013-05-21 11:00:00,
2013-05-21 07:06:00,69.0,67.0,29.88,NW,315,2.0,3.0,93,0.00,,,0.00,TxWx,2013-05-21 11:06:00,
2013-05-21 07:11:00,69.0,67.0,29.87,North,0,1.0,2.0,92,0.00,,,0.00,TxWx,2013-05-21 11:11:00,
2013-05-21 07:16:00,69.0,67.0,29.87,North,0,4.0,5.0,92,0.00,,,0.00,TxWx,2013-05-21 11:16:00,
2013-05-21 07:21:00,70.0,68.0,29.87,NNE,22,3.0,3.0,93,0.00,,,0.00,TxWx,2013-05-21 11:21:00,
2013-05-21 07:26:00,70.0,68.0,29.87,North,0,3.0,3.0,92,0.00,,,0.00,TxWx,2013-05-21 11:26:00,
2013-05-21 07:31:00,70.0,68.0,29.87,NNW,337,2.0,2.0,93,0.00,,,0.00,TxWx,2013-05-21 11:31:00,
2013-05-21 07:36:00,70.0,68.0,29.87,NW,315,5.0,5.0,93,0.00,,,0.00,TxWx,2013-05-21 11:36:00,
2013-05-21 07:42:00,71.0,69.0,29.87,NNW,337,2.0,3.0,93,0.00,,,0.00,TxWx,2013-05-21 11:42:00,
2013-05-21 07:47:00,71.0,69.0,29.87,North,0,3.0,3.0,93,0.00,,,0.00,TxWx,2013-05-21 11:47:00,
2013-05-21 07:52:00,72.0,70.0,29.88,ESE,112,5.0,6.0,93,0.00,,,0.00,TxWx,2013-05-21 11:52:00,
2013-05-21 07:57:00,71.0,68.0,29.89,NNE,22,5.0,5.0,92,0.00,,,0.00,TxWx,2013-05-21 11:57:00,
2013-05-21 08:02:00,70.0,68.0,29.89,NNE,22,3.0,3.0,92,0.00,,,0.00,TxWx,2013-05-21 12:02:00,
2013-05-21 08:07:00,71.0,69.0,29.88,NNW,337,3.0,3.0,92,0.00,,,0.00,TxWx,2013-05-21 12:07:00,
2013-05-21 08:12:00,71.0,69.0,29.88,NE,45,3.0,3.0,92,0.00,,,0.00,TxWx,2013-05-21 12:12:00,
2013-05-21 08:18:00,72.0,70.0,29.88,NW,315,1.0,3.0,92,0.00,,,0.00,TxWx,2013-05-21 12:18:00,
2013-05-21 08:23:00,72.0,70.0,29.88,WNW,292,2.0,4.0,92,0.00,,,0.00,TxWx,2013-05-21 12:23:00,
2013-05-21 08:28:00,72.0,70.0,29.88,North,0,2.0,3.0,92,0.00,,,0.00,TxWx,2013-05-21 12:28:00,
2013-05-21 08:34:00,73.0,71.0,29.88,WSW,247,1.0,2.0,92,0.00,,,0.00,TxWx,2013-05-21 12:34:00,
2013-05-21 08:39:00,73.0,71.0,29.88,North,0,3.0,3.0,92,0.00,,,0.00,TxWx,2013-05-21 12:39:00,
2013-05-21 08:44:00,74.0,72.0,29.88,NNE,22,4.0,5.0,92,0.00,,,0.00,TxWx,2013-05-21 12:44:00,
2013-05-21 08:49:00,74.0,71.0,29.88,NNE,22,4.0,5.0,92,0.00,,,0.00,TxWx,2013-05-21 12:49:00,
2013-05-21 08:54:00,75.0,73.0,29.88,ENE,67,3.0,3.0,92,0.00,,,0.00,TxWx,2013-05-21 12:54:00,
2013-05-21 08:59:00,75.0,72.0,29.88,West,270,3.0,3.0,92,0.00,,,0.00,TxWx,2013-05-21 12:59:00,
2013-05-21 09:05:00,76.0,73.0,29.88,NW,315,3.0,3.0,92,0.00,,,0.00,TxWx,2013-05-21 13:05:00,
2013-05-21 09:10:00,76.0,73.0,29.88,NNW,337,3.0,3.0,91,0.00,,,0.00,TxWx,2013-05-21 13:10:00,
2013-05-21 09:15:00,76.0,73.0,29.88,NW,315,2.0,4.0,90,0.00,,,0.00,TxWx,2013-05-21 13:15:00,
2013-05-21 09:21:00,77.0,73.0,29.88,North,0,4.0,4.0,89,0.00,,,0.00,TxWx,2013-05-21 13:21:00,
2013-05-21 09:26:00,77.0,73.0,29.87,NNW,337,5.0,5.0,87,0.00,,,0.00,TxWx,2013-05-21 13:26:00,
2013-05-21 09:31:00,78.0,73.0,29.87,NW,315,3.0,4.0,86,0.00,,,0.00,TxWx,2013-05-21 13:31:00,
2013-05-21 09:37:00,78.0,73.0,29.87,NNW,337,3.0,4.0,84,0.00,,,0.00,TxWx,2013-05-21 13:37:00,
2013-05-21 09:42:00,78.0,72.0,29.87,North,0,1.0,3.0,83,0.00,,,0.00,TxWx,2013-05-21 13:42:00,
2013-05-21 09:47:00,79.0,73.0,29.87,West,270,3.0,3.0,82,0.00,,,0.00,TxWx,2013-05-21 13:47:00,
2013-05-21 09:52:00,80.0,73.0,29.87,NW,315,3.0,4.0,81,0.00,,,0.00,TxWx,2013-05-21 13:52:00,
2013-05-21 09:58:00,80.0,72.0,29.87,NW,315,6.0,6.0,78,0.00,,,0.00,TxWx,2013-05-21 13:58:00,
2013-05-21 10:03:00,80.0,72.0,29.87,NNW,337,5.0,6.0,77,0.00,,,0.00,TxWx,2013-05-21 14:03:00,
2013-05-21 10:08:00,80.0,71.0,29.87,West,270,2.0,3.0,75,0.00,,,0.00,TxWx,2013-05-21 14:08:00,
2013-05-21 10:13:00,81.0,72.0,29.87,WSW,247,3.0,3.0,75,0.00,,,0.00,TxWx,2013-05-21 14:13:00,
2013-05-21 10:19:00,81.0,71.0,29.87,NW,315,3.0,3.0,73,0.00,,,0.00,TxWx,2013-05-21 14:19:00,
2013-05-21 10:24:00,81.0,71.0,29.86,NNE,22,2.0,3.0,73,0.00,,,0.00,TxWx,2013-05-21 14:24:00,
2013-05-21 10:29:00,81.0,71.0,29.86,NE,45,3.0,3.0,72,0.00,,,0.00,TxWx,2013-05-21 14:29:00,
2013-05-21 10:35:00,81.0,71.0,29.86,NW,315,3.0,4.0,72,0.00,,,0.00,TxWx,2013-05-21 14:35:00,
2013-05-21 10:40:00,82.0,72.0,29.85,NNE,22,2.0,2.0,71,0.00,,,0.00,TxWx,2013-05-21 14:40:00,
2013-05-21 10:45:00,82.0,71.0,29.85,NNE,22,5.0,5.0,70,0.00,,,0.00,TxWx,2013-05-21 14:45:00,
2013-05-21 10:50:00,82.0,71.0,29.85,NNE,22,3.0,5.0,70,0.00,,,0.00,TxWx,2013-05-21 14:50:00,
2013-05-21 10:55:00,83.0,72.0,29.85,West,270,4.0,5.0,70,0.00,,,0.00,TxWx,2013-05-21 14:55:00,
2013-05-21 11:01:00,84.0,73.0,29.84,West,270,2.0,3.0,69,0.00,,,0.00,TxWx,2013-05-21 15:01:00,
2013-05-21 11:06:00,84.0,72.0,29.84,NNE,22,5.0,5.0,67,0.00,,,0.00,TxWx,2013-05-21 15:06:00,
2013-05-21 11:11:00,84.0,72.0,29.84,North,0,1.0,2.0,67,0.00,,,0.00,TxWx,2013-05-21 15:11:00,
2013-05-21 11:17:00,84.0,71.0,29.84,NE,45,4.0,5.0,65,0.00,,,0.00,TxWx,2013-05-21 15:17:00,
2013-05-21 11:22:00,84.0,71.0,29.84,WNW,292,3.0,3.0,65,0.00,,,0.00,TxWx,2013-05-21 15:22:00,
2013-05-21 11:27:00,85.0,72.0,29.84,North,0,1.0,2.0,66,0.00,,,0.00,TxWx,2013-05-21 15:27:00,
2013-05-21 11:33:00,86.0,72.0,29.84,ENE,67,2.0,3.0,64,0.00,,,0.00,TxWx,2013-05-21 15:33:00,
2013-05-21 11:38:00,85.0,71.0,29.83,WNW,292,3.0,3.0,64,0.00,,,0.00,TxWx,2013-05-21 15:38:00,
2013-05-21 11:43:00,86.0,72.0,29.83,West,270,6.0,6.0,64,0.00,,,0.00,TxWx,2013-05-21 15:43:00,
2013-05-21 11:49:00,86.0,71.0,29.82,SW,225,1.0,1.0,62,0.00,,,0.00,TxWx,2013-05-21 15:49:00,
2013-05-21 11:54:00,87.0,72.0,29.83,NNW,337,5.0,5.0,62,0.00,,,0.00,TxWx,2013-05-21 15:54:00,
2013-05-21 11:59:00,87.0,72.0,29.82,SSW,202,3.0,5.0,61,0.00,,,0.00,TxWx,2013-05-21 15:59:00,
2013-05-21 12:04:00,87.0,72.0,29.82,NE,45,5.0,6.0,61,0.00,,,0.00,TxWx,2013-05-21 16:04:00,
2013-05-21 12:10:00,87.0,72.0,29.82,NNE,22,3.0,5.0,61,0.00,,,0.00,TxWx,2013-05-21 16:10:00,
2013-05-21 12:15:00,87.0,71.0,29.82,North,0,3.0,3.0,60,0.00,,,0.00,TxWx,2013-05-21 16:15:00,
2013-05-21 12:20:00,87.0,71.0,29.81,NE,45,7.0,8.0,59,0.00,,,0.00,TxWx,2013-05-21 16:20:00,
2013-05-21 12:25:00,87.0,71.0,29.82,NE,45,4.0,5.0,60,0.00,,,0.00,TxWx,2013-05-21 16:25:00,
2013-05-21 12:30:00,87.0,71.0,29.81,NW,315,2.0,3.0,60,0.00,,,0.00,TxWx,2013-05-21 16:30:00,
2013-05-21 12:36:00,88.0,71.0,29.81,NE,45,8.0,8.0,58,0.00,,,0.00,TxWx,2013-05-21 16:36:00,
2013-05-21 12:41:00,88.0,72.0,29.81,East,90,6.0,6.0,59,0.00,,,0.00,TxWx,2013-05-21 16:41:00,
2013-05-21 12:46:00,89.0,72.0,29.81,North,0,3.0,6.0,58,0.00,,,0.00,TxWx,2013-05-21 16:46:00,
2013-05-21 12:51:00,90.0,73.0,29.81,West,270,3.0,4.0,58,0.00,,,0.00,TxWx,2013-05-21 16:51:00,
2013-05-21 12:56:00,90.0,72.0,29.81,ESE,112,2.0,3.0,56,0.00,,,0.00,TxWx,2013-05-21 16:56:00,
2013-05-21 13:02:00,90.0,72.0,29.81,NW,315,5.0,5.0,55,0.00,,,0.00,TxWx,2013-05-21 17:02:00,
2013-05-21 13:07:00,90.0,72.0,29.81,NW,315,5.0,7.0,55,0.00,,,0.00,TxWx,2013-05-21 17:07:00,
2013-05-21 13:12:00,90.0,71.0,29.80,East,90,1.0,2.0,55,0.00,,,0.00,TxWx,2013-05-21 17:12:00,
2013-05-21 13:17:00,91.0,73.0,29.80,WNW,292,3.0,3.0,55,0.00,,,0.00,TxWx,2013-05-21 17:17:00,
2013-05-21 13:22:00,91.0,71.0,29.80,North,0,3.0,3.0,53,0.00,,,0.00,TxWx,2013-05-21 17:22:00,
2013-05-21 13:27:00,91.0,71.0,29.80,NW,315,4.0,6.0,52,0.00,,,0.00,TxWx,2013-05-21 17:27:00,
2013-05-21 13:32:00,91.0,72.0,29.79,WNW,292,3.0,4.0,54,0.00,,,0.00,TxWx,2013-05-21 17:32:00,
2013-05-21 13:37:00,91.0,71.0,29.79,SSW,202,5.0,5.0,53,0.00,,,0.00,TxWx,2013-05-21 17:37:00,
2013-05-21 13:42:00,91.0,71.0,29.79,South,180,4.0,5.0,52,0.00,,,0.00,TxWx,2013-05-21 17:42:00,
2013-05-21 13:48:00,92.0,72.0,29.79,NE,45,3.0,4.0,53,0.00,,,0.00,TxWx,2013-05-21 17:48:00,
2013-05-21 13:53:00,92.0,72.0,29.79,ENE,67,4.0,4.0,52,0.00,,,0.00,TxWx,2013-05-21 17:53:00,
2013-05-21 13:58:00,91.0,71.0,29.78,North,0,3.0,4.0,52,0.00,,,0.00,TxWx,2013-05-21 17:58:00,
2013-05-21 14:03:00,91.0,71.0,29.78,West,270,4.0,4.0,53,0.00,,,0.00,TxWx,2013-05-21 18:03:00,
2013-05-21 14:08:00,91.0,72.0,29.78,North,0,3.0,5.0,54,0.00,,,0.00,TxWx,2013-05-21 18:08:00,
2013-05-21 14:13:00,91.0,71.0,29.78,SE,135,3.0,3.0,52,0.00,,,0.00,TxWx,2013-05-21 18:13:00,
2013-05-21 14:18:00,92.0,72.0,29.78,NW,315,4.0,4.0,52,0.00,,,0.00,TxWx,2013-05-21 18:18:00,
2013-05-21 14:24:00,92.0,71.0,29.77,NW,315,2.0,3.0,51,0.00,,,0.00,TxWx,2013-05-21 18:24:00,
2013-05-21 14:29:00,93.0,72.0,29.77,NE,45,2.0,3.0,51,0.00,,,0.00,TxWx,2013-05-21 18:29:00,
2013-05-21 14:34:00,93.0,72.0,29.77,NW,315,1.0,2.0,51,0.00,,,0.00,TxWx,2013-05-21 18:34:00,
2013-05-21 14:39:00,93.0,71.0,29.77,NW,315,3.0,8.0,50,0.00,,,0.00,TxWx,2013-05-21 18:39:00,
2013-05-21 14:44:00,93.0,71.0,29.77,NNW,337,5.0,7.0,50,0.00,,,0.00,TxWx,2013-05-21 18:44:00,
2013-05-21 14:49:00,93.0,71.0,29.77,WNW,292,6.0,7.0,50,0.00,,,0.00,TxWx,2013-05-21 18:49:00,
2013-05-21 14:55:00,93.0,71.0,29.76,East,90,3.0,3.0,50,0.00,,,0.00,TxWx,2013-05-21 18:55:00,
2013-05-21 15:00:00,93.0,71.0,29.76,NW,315,3.0,3.0,49,0.00,,,0.00,TxWx,2013-05-21 19:00:00,
2013-05-21 15:01:00,74.0,70.0,29.76,NNW,337,0.0,1.0,86,0.00,,,0.00,TxWx,2013-05-21 19:01:00,
2013-05-21 15:02:00,74.0,70.0,29.76,NNE,22,1.0,2.0,86,0.00,,,0.00,TxWx,2013-05-21 19:02:00,
2013-05-21 15:03:00,73.0,69.0,29.77,NNE,22,1.0,2.0,86,0.00,,,0.00,TxWx,2013-05-21 19:03:00,
2013-05-21 15:04:00,73.0,69.0,29.76,NNE,22,1.0,1.0,86,0.00,,,0.00,TxWx,2013-05-21 19:04:00,
2013-05-21 15:05:00,93.0,72.0,29.76,West,270,3.0,3.0,50,0.00,,,0.00,TxWx,2013-05-21 19:05:00,
2013-05-21 15:06:00,73.0,69.0,29.76,North,0,1.0,1.0,86,0.00,,,0.00,TxWx,2013-05-21 19:06:00,
2013-05-21 15:07:00,73.0,69.0,29.76,NNE,22,1.0,2.0,86,0.00,,,0.00,TxWx,2013-05-21 19:07:00,
2013-05-21 15:08:00,73.0,69.0,29.76,NE,45,1.0,1.0,86,0.00,,,0.00,TxWx,2013-05-21 19:08:00,
2013-05-21 15:09:00,73.0,69.0,29.76,ENE,67,1.0,1.0,86,0.00,,,0.00,TxWx,2013-05-21 19:09:00,
2013-05-21 15:10:00,93.0,71.0,29.76,NW,315,4.0,6.0,49,0.00,,,0.00,TxWx,2013-05-21 19:10:00,
2013-05-21 15:11:00,73.0,69.0,29.76,ESE,112,1.0,1.0,86,0.00,,,0.00,TxWx,2013-05-21 19:11:00,
2013-05-21 15:12:00,73.0,69.0,29.76,SE,135,1.0,1.0,86,0.00,,,0.00,TxWx,2013-05-21 19:12:00,
2013-05-21 15:13:00,73.0,69.0,29.76,SE,135,1.0,1.0,86,0.00,,,0.00,TxWx,2013-05-21 19:13:00,
2013-05-21 15:14:00,73.0,69.0,29.76,SE,135,1.0,1.0,86,0.00,,,0.00,TxWx,2013-05-21 19:14:00,
2013-05-21 15:15:00,73.0,69.0,29.77,ESE,112,2.0,2.0,86,0.00,,,0.00,TxWx,2013-05-21 19:15:00,
2013-05-21 15:16:00,94.0,72.0,29.75,WNW,292,4.0,4.0,49,0.00,,,0.00,TxWx,2013-05-21 19:16:00,
2013-05-21 15:17:00,73.0,69.0,29.77,East,90,3.0,3.0,86,0.00,,,0.00,TxWx,2013-05-21 19:17:00,
2013-05-21 15:18:00,73.0,69.0,29.77,ESE,112,2.0,3.0,86,0.00,,,0.00,TxWx,2013-05-21 19:18:00,
2013-05-21 15:19:00,73.0,69.0,29.77,SSW,202,1.0,1.0,86,0.00,,,0.00,TxWx,2013-05-21 19:19:00,
2013-05-21 15:20:00,73.0,69.0,29.77,SE,135,1.0,1.0,86,0.00,,,0.00,TxWx,2013-05-21 19:20:00,
2013-05-21 15:21:00,94.0,71.0,29.75,WNW,292,4.0,5.0,48,0.00,,,0.00,TxWx,2013-05-21 19:21:00,
2013-05-21 15:22:00,73.0,69.0,29.77,SE,135,2.0,3.0,87,0.00,,,0.00,TxWx,2013-05-21 19:22:00,
2013-05-21 15:23:00,73.0,69.0,29.77,SE,135,1.0,1.0,87,0.00,,,0.00,TxWx,2013-05-21 19:23:00,
2013-05-21 15:24:00,73.0,69.0,29.77,SE,135,1.0,1.0,87,0.00,,,0.00,TxWx,2013-05-21 19:24:00,
2013-05-21 15:25:00,73.0,69.0,29.77,SE,135,1.0,1.0,87,0.00,,,0.00,TxWx,2013-05-21 19:25:00,
2013-05-21 15:26:00,93.0,70.0,29.74,WNW,292,10.0,10.0,48,0.00,,,0.00,TxWx,2013-05-21 19:26:00,
2013-05-21 15:27:00,73.0,69.0,29.77,WSW,247,1.0,1.0,87,0.00,,,0.00,TxWx,2013-05-21 19:27:00,
2013-05-21 15:28:00,73.0,69.0,29.77,WSW,247,0.0,0.0,87,0.00,,,0.00,TxWx,2013-05-21 19:28:00,
2013-05-21 15:29:00,73.0,69.0,29.77,WSW,247,1.0,1.0,87,0.00,,,0.00,TxWx,2013-05-21 19:29:00,
2013-05-21 15:30:00,73.0,69.0,29.77,WSW,247,0.0,0.0,87,0.00,,,0.00,TxWx,2013-05-21 19:30:00,
2013-05-21 15:31:00,73.0,69.0,29.77,WSW,247,0.0,0.0,87,0.00,,,0.00,TxWx,2013-05-21 19:31:00,
2013-05-21 15:32:00,93.0,70.0,29.74,WNW,292,4.0,9.0,48,0.00,,,0.00,TxWx,2013-05-21 19:32:00,
2013-05-21 15:33:00,73.0,69.0,29.77,NNE,22,1.0,1.0,87,0.00,,,0.00,TxWx,2013-05-21 19:33:00,
2013-05-21 15:34:00,73.0,69.0,29.77,North,0,0.0,1.0,87,0.00,,,0.00,TxWx,2013-05-21 19:34:00,
2013-05-21 15:35:00,73.0,69.0,29.77,NNE,22,0.0,0.0,87,0.00,,,0.00,TxWx,2013-05-21 19:35:00,
2013-05-21 15:36:00,73.0,69.0,29.77,NE,45,1.0,1.0,87,0.00,,,0.00,TxWx,2013-05-21 19:36:00,
2013-05-21 15:37:00,92.0,70.0,29.74,NW,315,4.0,5.0,49,0.00,,,0.00,TxWx,2013-05-21 19:37:00,
2013-05-21 15:38:00,73.0,69.0,29.77,WSW,247,0.0,1.0,87,0.00,,,0.00,TxWx,2013-05-21 19:38:00,
2013-05-21 15:39:00,73.0,69.0,29.77,WSW,247,1.0,1.0,87,0.00,,,0.00,TxWx,2013-05-21 19:39:00,
2013-05-21 15:40:00,73.0,69.0,29.77,West,270,2.0,2.0,87,0.00,,,0.00,TxWx,2013-05-21 19:40:00,
2013-05-21 15:41:00,73.0,69.0,29.77,West,270,3.0,3.0,87,0.00,,,0.00,TxWx,2013-05-21 19:41:00,
2013-05-21 15:42:00,91.0,70.0,29.74,NW,315,3.0,4.0,51,0.00,,,0.00,TxWx,2013-05-21 19:42:00,
2013-05-21 15:43:00,73.0,69.0,29.78,West,270,1.0,1.0,87,0.00,,,0.00,TxWx,2013-05-21 19:43:00,
2013-05-21 15:44:00,73.0,69.0,29.78,WNW,292,1.0,1.0,87,0.00,,,0.00,TxWx,2013-05-21 19:44:00,
2013-05-21 15:45:00,73.0,69.0,29.78,NE,45,3.0,3.0,87,0.00,,,0.00,TxWx,2013-05-21 19:45:00,
2013-05-21 15:46:00,73.0,69.0,29.77,NE,45,3.0,3.0,87,0.00,,,0.00,TxWx,2013-05-21 19:46:00,
2013-05-21 15:47:00,90.0,70.0,29.75,WNW,292,2.0,3.0,52,0.00,,,0.00,TxWx,2013-05-21 19:47:00,
2013-05-21 15:48:00,73.0,69.0,29.78,NNE,22,1.0,2.0,87,0.00,,,0.00,TxWx,2013-05-21 19:48:00,
2013-05-21 15:49:00,72.0,68.0,29.78,NNE,22,1.0,1.0,87,0.00,,,0.00,TxWx,2013-05-21 19:49:00,
2013-05-21 15:51:00,72.0,68.0,29.78,NNE,22,1.0,1.0,87,0.00,,,0.00,TxWx,2013-05-21 19:51:00,
2013-05-21 15:52:00,89.0,71.0,29.75,WNW,292,3.0,4.0,55,0.00,,,0.00,TxWx,2013-05-21 19:52:00,
2013-05-21 15:53:00,72.0,68.0,29.78,ENE,67,1.0,2.0,87,0.00,,,0.00,TxWx,2013-05-21 19:53:00,
2013-05-21 15:56:00,72.0,68.0,29.79,East,90,1.0,1.0,87,0.00,,,0.00,TxWx,2013-05-21 19:56:00,
2013-05-21 15:57:00,72.0,68.0,29.79,East,90,3.0,4.0,88,0.00,,,0.00,TxWx,2013-05-21 19:57:00,
2013-05-21 15:58:00,88.0,71.0,29.74,SW,225,2.0,2.0,57,0.00,,,0.00,TxWx,2013-05-21 19:58:00,
2013-05-21 16:03:00,88.0,71.0,29.74,SW,225,1.0,2.0,58,0.00,,,0.00,TxWx,2013-05-21 20:03:00,
2013-05-21 16:08:00,88.0,72.0,29.74,ENE,67,2.0,4.0,59,0.00,,,0.00,TxWx,2013-05-21 20:08:00,
2013-05-21 16:14:00,88.0,72.0,29.75,SE,135,11.0,17.0,59,0.00,,,0.00,TxWx,2013-05-21 20:14:00,
2013-05-21 16:19:00,84.0,68.0,29.75,SSE,157,11.0,14.0,58,0.00,,,0.00,TxWx,2013-05-21 20:19:00,
2013-05-21 16:24:00,83.0,68.0,29.76,SE,135,5.0,8.0,60,0.00,,,0.00,TxWx,2013-05-21 20:24:00,
2013-05-21 16:29:00,82.0,67.0,29.75,South,180,10.0,11.0,61,0.00,,,0.00,TxWx,2013-05-21 20:29:00,
2013-05-21 16:34:00,81.0,66.0,29.75,SSE,157,6.0,7.0,62,0.00,,,0.00,TxWx,2013-05-21 20:34:00,
2013-05-21 16:40:00,81.0,67.0,29.75,South,180,6.0,10.0,63,0.00,,,0.00,TxWx,2013-05-21 20:40:00,
2013-05-21 16:45:00,81.0,67.0,29.75,South,180,13.0,13.0,63,0.00,,,0.00,TxWx,2013-05-21 20:45:00,
2013-05-21 16:50:00,80.0,67.0,29.75,SSW,202,8.0,10.0,65,0.00,,,0.00,TxWx,2013-05-21 20:50:00,
2013-05-21 16:55:00,80.0,68.0,29.76,SW,225,4.0,8.0,67,0.00,,,0.00,TxWx,2013-05-21 20:55:00,
2013-05-21 17:00:00,79.0,67.0,29.76,SSW,202,4.0,4.0,68,0.00,,,0.00,TxWx,2013-05-21 21:00:00,
2013-05-21 17:06:00,78.0,67.0,29.75,South,180,6.0,6.0,70,0.00,,,0.00,TxWx,2013-05-21 21:06:00,
2013-05-21 17:11:00,78.0,67.0,29.76,South,180,11.0,11.0,70,0.00,,,0.00,TxWx,2013-05-21 21:11:00,
2013-05-21 17:16:00,78.0,67.0,29.76,SW,225,2.0,3.0,70,0.00,,,0.00,TxWx,2013-05-21 21:16:00,
2013-05-21 17:21:00,78.0,67.0,29.76,South,180,6.0,7.0,69,0.00,,,0.00,TxWx,2013-05-21 21:21:00,
2013-05-21 17:26:00,78.0,67.0,29.75,West,270,5.0,6.0,70,0.00,,,0.00,TxWx,2013-05-21 21:26:00,
2013-05-21 17:31:00,77.0,66.0,29.75,West,270,5.0,6.0,70,0.00,,,0.00,TxWx,2013-05-21 21:31:00,
2013-05-21 17:36:00,78.0,68.0,29.76,SSW,202,2.0,3.0,71,0.00,,,0.00,TxWx,2013-05-21 21:36:00,
2013-05-21 17:41:00,77.0,67.0,29.76,SW,225,6.0,6.0,72,0.60,,,0.03,TxWx,2013-05-21 21:41:00,
2013-05-21 17:47:00,76.0,67.0,29.76,South,180,2.0,2.0,74,0.60,,,0.04,TxWx,2013-05-21 21:47:00,
2013-05-21 17:52:00,76.0,68.0,29.77,ENE,67,3.0,3.0,76,0.60,,,0.04,TxWx,2013-05-21 21:52:00,
2013-05-21 17:57:00,76.0,68.0,29.77,SW,225,1.0,2.0,78,0.60,,,0.04,TxWx,2013-05-21 21:57:00,
2013-05-21 18:03:00,76.0,69.0,29.77,ENE,67,1.0,1.0,78,0.00,,,0.04,TxWx,2013-05-21 22:03:00,
2013-05-21 18:08:00,77.0,70.0,29.77,NNE,22,0.0,1.0,79,0.00,,,0.04,TxWx,2013-05-21 22:08:00,
2013-05-21 18:13:00,77.0,70.0,29.76,SE,135,2.0,2.0,79,0.00,,,0.04,TxWx,2013-05-21 22:13:00,
2013-05-21 18:18:00,77.0,70.0,29.76,SW,225,2.0,2.0,79,0.00,,,0.04,TxWx,2013-05-21 22:18:00,
2013-05-21 18:23:00,77.0,70.0,29.76,NNE,22,1.0,1.0,79,0.00,,,0.04,TxWx,2013-05-21 22:23:00,
2013-05-21 18:29:00,77.0,70.0,29.76,NNE,22,1.0,1.0,79,0.00,,,0.04,TxWx,2013-05-21 22:29:00,
2013-05-21 18:34:00,77.0,70.0,29.76,WNW,292,1.0,1.0,79,0.00,,,0.04,TxWx,2013-05-21 22:34:00,
2013-05-21 18:39:00,77.0,70.0,29.76,NNW,337,1.0,2.0,80,0.00,,,0.04,TxWx,2013-05-21 22:39:00,
2013-05-21 18:44:00,77.0,70.0,29.76,SE,135,1.0,2.0,80,0.00,,,0.04,TxWx,2013-05-21 22:44:00,
2013-05-21 18:49:00,77.0,71.0,29.76,East,90,3.0,3.0,81,0.00,,,0.04,TxWx,2013-05-21 22:49:00,
2013-05-21 18:55:00,77.0,71.0,29.76,East,90,2.0,3.0,81,0.00,,,0.04,TxWx,2013-05-21 22:55:00,
2013-05-21 19:00:00,77.0,71.0,29.76,NW,315,1.0,1.0,82,0.00,,,0.04,TxWx,2013-05-21 23:00:00,
2013-05-21 19:05:00,77.0,71.0,29.76,North,0,1.0,1.0,83,0.00,,,0.04,TxWx,2013-05-21 23:05:00,
2013-05-21 19:10:00,77.0,71.0,29.77,East,90,1.0,1.0,83,0.00,,,0.04,TxWx,2013-05-21 23:10:00,
2013-05-21 19:15:00,77.0,71.0,29.77,East,90,1.0,1.0,83,0.00,,,0.04,TxWx,2013-05-21 23:15:00,
2013-05-21 19:21:00,77.0,71.0,29.77,NW,315,2.0,2.0,83,0.00,,,0.04,TxWx,2013-05-21 23:21:00,
2013-05-21 19:26:00,77.0,71.0,29.76,NNE,22,1.0,1.0,83,0.00,,,0.04,TxWx,2013-05-21 23:26:00,
2013-05-21 19:31:00,77.0,72.0,29.77,WNW,292,1.0,1.0,84,0.00,,,0.04,TxWx,2013-05-21 23:31:00,
2013-05-21 19:36:00,77.0,72.0,29.76,WSW,247,0.0,1.0,84,0.00,,,0.04,TxWx,2013-05-21 23:36:00,
2013-05-21 19:41:00,76.0,71.0,29.76,NNW,337,1.0,1.0,84,0.00,,,0.04,TxWx,2013-05-21 23:41:00,
2013-05-21 19:46:00,76.0,71.0,29.76,NNE,22,1.0,2.0,84,0.00,,,0.04,TxWx,2013-05-21 23:46:00,
2013-05-21 19:51:00,76.0,71.0,29.75,West,270,1.0,2.0,84,0.00,,,0.04,TxWx,2013-05-21 23:51:00,
2013-05-21 19:56:00,76.0,71.0,29.76,NW,315,1.0,1.0,84,0.00,,,0.04,TxWx,2013-05-21 23:56:00,
2013-05-21 20:02:00,76.0,71.0,29.76,West,270,1.0,1.0,84,0.00,,,0.04,TxWx,2013-05-22 00:02:00,
2013-05-21 20:07:00,75.0,70.0,29.75,WNW,292,2.0,2.0,84,0.00,,,0.04,TxWx,2013-05-22 00:07:00,
2013-05-21 20:12:00,75.0,70.0,29.75,NW,315,0.0,1.0,84,0.00,,,0.04,TxWx,2013-05-22 00:12:00,
2013-05-21 20:17:00,75.0,70.0,29.75,West,270,0.0,1.0,84,0.00,,,0.04,TxWx,2013-05-22 00:17:00,
2013-05-21 20:22:00,75.0,70.0,29.75,NNE,22,2.0,2.0,84,0.00,,,0.04,TxWx,2013-05-22 00:22:00,
2013-05-21 20:27:00,75.0,70.0,29.75,SE,135,1.0,1.0,85,0.00,,,0.04,TxWx,2013-05-22 00:27:00,
2013-05-21 20:32:00,75.0,70.0,29.75,North,0,0.0,1.0,85,0.00,,,0.04,TxWx,2013-05-22 00:32:00,
2013-05-21 20:38:00,74.0,69.0,29.75,WSW,247,2.0,2.0,85,0.00,,,0.04,TxWx,2013-05-22 00:38:00,
2013-05-21 20:43:00,74.0,69.0,29.75,North,0,1.0,1.0,85,0.00,,,0.04,TxWx,2013-05-22 00:43:00,
2013-05-21 20:48:00,74.0,69.0,29.75,ENE,67,1.0,1.0,85,0.00,,,0.04,TxWx,2013-05-22 00:48:00,
2013-05-21 20:53:00,74.0,69.0,29.75,SE,135,1.0,1.0,85,0.00,,,0.04,TxWx,2013-05-22 00:53:00,
2013-05-21 20:58:00,74.0,69.0,29.75,ESE,112,3.0,3.0,85,0.00,,,0.04,TxWx,2013-05-22 00:58:00,
2013-05-21 21:03:00,74.0,69.0,29.76,SW,225,0.0,1.0,86,0.00,,,0.04,TxWx,2013-05-22 01:03:00,
2013-05-21 21:09:00,74.0,70.0,29.76,WSW,247,1.0,1.0,86,0.00,,,0.04,TxWx,2013-05-22 01:09:00,
2013-05-21 21:14:00,74.0,70.0,29.75,West,270,0.0,0.0,87,0.00,,,0.04,TxWx,2013-05-22 01:14:00,
2013-05-21 21:19:00,74.0,70.0,29.74,WSW,247,1.0,1.0,87,0.00,,,0.05,TxWx,2013-05-22 01:19:00,
2013-05-21 21:24:00,74.0,70.0,29.74,WSW,247,0.0,1.0,87,0.60,,,0.05,TxWx,2013-05-22 01:24:00,
2013-05-21 21:30:00,73.0,69.0,29.74,North,0,1.0,1.0,87,0.00,,,0.05,TxWx,2013-05-22 01:30:00,
2013-05-21 21:35:00,73.0,69.0,29.74,ENE,67,1.0,1.0,87,0.00,,,0.05,TxWx,2013-05-22 01:35:00,
2013-05-21 21:40:00,73.0,69.0,29.74,SE,135,1.0,1.0,87,0.00,,,0.05,TxWx,2013-05-22 01:40:00,
2013-05-21 21:45:00,73.0,69.0,29.74,SW,225,1.0,1.0,88,0.00,,,0.05,TxWx,2013-05-22 01:45:00,
2013-05-21 21:51:00,73.0,69.0,29.74,NE,45,1.0,2.0,88,0.00,,,0.05,TxWx,2013-05-22 01:51:00,
2013-05-21 21:56:00,73.0,69.0,29.74,ESE,112,1.0,1.0,88,0.00,,,0.05,TxWx,2013-05-22 01:56:00,
2013-05-21 22:01:00,74.0,70.0,29.74,SSE,157,2.0,2.0,88,0.00,,,0.05,TxWx,2013-05-22 02:01:00,
2013-05-21 22:07:00,74.0,70.0,29.74,SE,135,1.0,1.0,88,0.00,,,0.05,TxWx,2013-05-22 02:07:00,
2013-05-21 22:12:00,74.0,70.0,29.74,SE,135,1.0,1.0,88,0.00,,,0.05,TxWx,2013-05-22 02:12:00,
2013-05-21 22:17:00,74.0,70.0,29.75,South,180,1.0,1.0,88,0.00,,,0.05,TxWx,2013-05-22 02:17:00,
2013-05-21 22:23:00,74.0,70.0,29.74,WSW,247,1.0,1.0,88,0.00,,,0.05,TxWx,2013-05-22 02:23:00,
2013-05-21 22:28:00,74.0,70.0,29.75,SSE,157,1.0,1.0,88,0.00,,,0.05,TxWx,2013-05-22 02:28:00,
2013-05-21 22:33:00,74.0,70.0,29.75,South,180,1.0,3.0,88,0.00,,,0.05,TxWx,2013-05-22 02:33:00,
2013-05-21 22:39:00,73.0,69.0,29.75,SE,135,1.0,2.0,88,0.00,,,0.05,TxWx,2013-05-22 02:39:00,
2013-05-21 22:44:00,73.0,69.0,29.75,SE,135,2.0,2.0,88,0.00,,,0.05,TxWx,2013-05-22 02:44:00,
2013-05-21 22:49:00,73.0,69.0,29.76,SE,135,5.0,6.0,88,0.00,,,0.05,TxWx,2013-05-22 02:49:00,
2013-05-21 22:55:00,74.0,70.0,29.77,SSE,157,8.0,11.0,88,0.00,,,0.05,TxWx,2013-05-22 02:55:00,
2013-05-21 23:00:00,74.0,70.0,29.77,SSE,157,9.0,10.0,88,0.00,,,0.05,TxWx,2013-05-22 03:00:00,
2013-05-21 23:05:00,74.0,70.0,29.77,SSE,157,5.0,5.0,88,0.00,,,0.05,TxWx,2013-05-22 03:05:00,
2013-05-21 23:11:00,74.0,70.0,29.77,SSW,202,4.0,4.0,87,0.00,,,0.05,TxWx,2013-05-22 03:11:00,
2013-05-21 23:16:00,74.0,70.0,29.77,ESE,112,1.0,3.0,87,0.00,,,0.05,TxWx,2013-05-22 03:16:00,
2013-05-21 23:21:00,74.0,70.0,29.76,SE,135,3.0,4.0,86,0.00,,,0.05,TxWx,2013-05-22 03:21:00,
2013-05-21 23:27:00,74.0,70.0,29.77,WSW,247,1.0,2.0,86,0.00,,,0.05,TxWx,2013-05-22 03:27:00,
2013-05-21 23:32:00,74.0,70.0,29.77,ENE,67,1.0,2.0,86,0.00,,,0.05,TxWx,2013-05-22 03:32:00,
2013-05-21 23:37:00,74.0,70.0,29.76,SSE,157,2.0,3.0,86,0.00,,,0.05,TxWx,2013-05-22 03:37:00,
2013-05-21 23:42:00,74.0,70.0,29.77,NE,45,1.0,1.0,86,0.00,,,0.05,TxWx,2013-05-22 03:42:00,
2013-05-21 23:47:00,74.0,70.0,29.77,West,270,0.0,0.0,86,0.00,,,0.05,TxWx,2013-05-22 03:47:00,
2013-05-21 23:52:00,74.0,70.0,29.77,SW,225,1.0,2.0,86,0.00,,,0.05,TxWx,2013-05-22 03:52:00,
2013-05-21 23:58:00,74.0,70.0,29.77,WNW,292,1.0,1.0,86,0.00,,,0.05,TxWx,2013-05-22 03:58:00,